Achilles, Virginia
Current Conditions -  °F | °C
As of 1:54 AM on Thursday 23 Oct 2014 (Local Time) from KPHF Reporting Station
Broken Clouds Broken Clouds  
Wind Chill: 56°   Ceiling: 3800
Heat Index: 56°   Visibility: 10mi
Dew Point: 44°   Wind: 15mph
Humidity: 64%   Direction: 310°NW
Pressure: 29.89"   Gusts: NA
Location:  37.28°N, 76.44°W
Report Text: KPHF 230554Z 31013KT 10SM BKN038 BKN049 13/07 A2989 RMK AO2 SLP121 T01330067 10144 20128 56008
Loading
Personal Weather Stations






























Interactive Weather Map
Tropical Storm Tracking
New forecast layout! Learn more

10-Day Weather Forecast

Advertisements
Track Severe Weather on mobile